Ana Sayfa
METAR-TAF:

METAR-TAF

Havaalanları :

Redstone Arsenal, Alabama, Amerika Birleşik Devletleri

Enlem: 34-40-43N, Boylam: 086-41-05W, yükseklik: 209 m

Güncel hava durumu gözlemi

Rapor saat 18:53 UTC de 23 dakika önce yapıldı.
Sakin rüzgar
Sıcaklık 37°C
Nem 29%
Basınç 1016 hPa
Görüş mesafesi: 11.3 km
Açık gökyüzü

METAR: KHUA 251853Z 00000KT 7SM SKC 37/16 A2999

Saat: 14:16 (19:16 UTC)

Tahmin

Rapor saat 12:00 UTC de 7 saat ve 16 dakika önce yapıldı.
Ayın 25'si saat 12 UTC'den ayın 26'si saat 18 UTC'ye kadar geçerli Tahmin
Rüzgar değişken yönden 6 kt
Görüş mesafesi 10 km veya daha fazla
Açık gökyüzü

TAF: KHUA 251200Z 2512/2618 VRB06KT 9999 SKC QNH2988INS TX36/2519Z TN20/2512Z

4.000'den fazla havaalanı için hava durumu gözlemleri ve tahminleri (METAR ve TAF raporları).

Kullanılabilir istasyonlar harita üzerinde sarı ve kırmızı noktalarla gösterilir.

İstasyonun adını görmek için fareyi noktanın üzerinde gezdirin.

Sonrasında hava gözlem ve tahminlerini görmek için tıklayın.

Haritayı değiştirmek için: yaklaştırmak için siyah artı işaretli yeşil düğmeye ve uzaklaştırmak için de eksi işaretli düğmeye hızla tıklayın; bitişik haritalar için yeşil okları kullanın.


METAR-TAF: